createdAt,value
2023-12-29T00:00:06.729Z,100402.19
2023-12-29T00:02:33.304Z,100409.94
2023-12-29T00:04:59.782Z,100395.47
2023-12-29T00:07:26.154Z,100399.28
2023-12-29T00:09:55.058Z,100394.75
2023-12-29T00:12:21.544Z,100395.53
2023-12-29T00:14:48.345Z,100398.13
2023-12-29T00:17:15.303Z,100392.03
2023-12-29T00:19:41.740Z,100390.44
2023-12-29T00:22:08.626Z,100386.03
2023-12-29T00:24:35.232Z,100369.94
2023-12-29T00:27:01.849Z,100372.59
2023-12-29T00:29:33.103Z,100365.28
2023-12-29T00:32:01.304Z,100361.47
2023-12-29T00:34:27.807Z,100362.22
2023-12-29T00:36:54.260Z,100360.28
2023-12-29T00:39:27.305Z,100357.53
2023-12-29T00:41:53.698Z,100357.22
2023-12-29T00:44:20.029Z,100350.41
2023-12-29T00:46:46.396Z,100344.78
2023-12-29T00:49:13.230Z,100348.97
2023-12-29T00:51:42.826Z,100356.50
2023-12-29T00:54:09.327Z,100357.09
2023-12-29T00:56:35.734Z,100345.84
2023-12-29T00:59:02.062Z,100359.06
2023-12-29T01:01:28.474Z,100357.28
2023-12-29T01:03:55.879Z,100352.69
2023-12-29T01:06:24.108Z,100354.25
2023-12-29T01:08:50.444Z,100360.44
2023-12-29T01:11:16.784Z,100351.94
2023-12-29T01:13:43.123Z,100342.38
2023-12-29T01:16:09.697Z,100341.34
2023-12-29T01:18:36.128Z,100340.22
2023-12-29T01:21:02.616Z,100342.69
2023-12-29T01:23:29.008Z,100339.13
2023-12-29T01:25:55.347Z,100345.03
2023-12-29T01:28:21.755Z,100334.94
2023-12-29T01:30:48.261Z,100339.31
2023-12-29T01:33:14.809Z,100326.94
2023-12-29T01:35:41.378Z,100331.19
2023-12-29T01:38:07.734Z,100328.63
2023-12-29T01:40:43.642Z,100326.09
2023-12-29T01:43:10.141Z,100328.84
2023-12-29T01:45:45.911Z,100323.13
2023-12-29T01:48:18.921Z,100325.75
2023-12-29T01:50:46.173Z,100324.16
2023-12-29T01:53:12.622Z,100318.25
2023-12-29T01:55:39.322Z,100322.19
2023-12-29T01:58:06.320Z,100312.66
2023-12-29T02:00:34.528Z,100314.84
2023-12-29T02:03:01.089Z,100306.56
2023-12-29T02:05:28.849Z,100299.63
2023-12-29T02:07:55.385Z,100290.69
2023-12-29T02:10:22.483Z,100292.28
2023-12-29T02:12:50.275Z,100285.88
2023-12-29T02:15:17.108Z,100284.09
2023-12-29T02:17:52.096Z,100283.97
2023-12-29T02:20:18.950Z,100278.94
2023-12-29T02:22:45.369Z,100282.63
2023-12-29T02:25:12.408Z,100281.66
2023-12-29T02:27:56.347Z,100274.81
2023-12-29T02:30:44.129Z,100269.56
2023-12-29T02:33:14.104Z,100277.84
2023-12-29T02:35:43.607Z,100278.91
2023-12-29T02:38:11.763Z,100287.00
2023-12-29T02:40:38.610Z,100298.28
2023-12-29T02:43:05.155Z,100295.63
2023-12-29T02:45:31.580Z,100300.19
2023-12-29T02:47:59.005Z,100303.69
2023-12-29T02:50:25.878Z,100296.63
2023-12-29T02:52:52.329Z,100309.88
2023-12-29T02:55:19.263Z,100299.31
2023-12-29T02:57:45.907Z,100305.28
2023-12-29T03:00:12.774Z,100293.75
2023-12-29T03:02:39.192Z,100304.19
2023-12-29T03:05:06.117Z,100296.28
2023-12-29T03:07:32.634Z,100301.72
2023-12-29T03:09:59.334Z,100310.97
2023-12-29T03:12:25.905Z,100293.53
2023-12-29T03:14:52.356Z,100289.97
2023-12-29T03:17:18.909Z,100287.78
2023-12-29T03:19:45.431Z,100274.78
2023-12-29T03:22:12.076Z,100272.91
2023-12-29T03:24:41.426Z,100265.63
2023-12-29T03:27:08.003Z,100261.72
2023-12-29T03:29:34.454Z,100267.94
2023-12-29T03:32:00.902Z,100263.25
2023-12-29T03:34:27.362Z,100260.50
2023-12-29T03:36:53.833Z,100263.06
2023-12-29T03:39:20.242Z,100261.41
2023-12-29T03:41:46.826Z,100254.59
2023-12-29T03:44:13.169Z,100250.25
2023-12-29T03:46:40.329Z,100246.69
2023-12-29T03:49:06.805Z,100249.59
2023-12-29T03:51:33.540Z,100258.50
2023-12-29T03:54:00.003Z,100246.03
2023-12-29T03:56:26.580Z,100245.03
2023-12-29T03:58:53.105Z,100232.81
2023-12-29T04:01:21.049Z,100229.31
2023-12-29T04:03:47.547Z,100233.63
2023-12-29T04:06:13.991Z,100228.34
2023-12-29T04:08:40.416Z,100219.47
2023-12-29T04:11:07.296Z,100227.06
2023-12-29T04:13:33.680Z,100220.09
2023-12-29T04:16:00.576Z,100221.13
2023-12-29T04:18:27.146Z,100231.84
2023-12-29T04:20:53.572Z,100226.47
2023-12-29T04:23:19.976Z,100220.44
2023-12-29T04:25:47.017Z,100224.69
2023-12-29T04:28:13.483Z,100228.41
2023-12-29T04:30:39.939Z,100231.09
2023-12-29T04:33:06.403Z,100240.84
2023-12-29T04:35:32.790Z,100244.00
2023-12-29T04:37:59.431Z,100235.88
2023-12-29T04:40:25.924Z,100242.09
2023-12-29T04:42:52.346Z,100237.81
2023-12-29T04:45:18.811Z,100244.31
2023-12-29T04:47:45.276Z,100247.25
2023-12-29T04:50:11.769Z,100246.56
2023-12-29T04:52:38.276Z,100240.38
2023-12-29T04:55:05.037Z,100236.09
2023-12-29T04:57:31.480Z,100233.56
2023-12-29T04:59:57.998Z,100230.97
2023-12-29T05:02:24.431Z,100215.13
2023-12-29T05:04:50.916Z,100211.44
2023-12-29T05:07:17.390Z,100212.84
2023-12-29T05:09:43.875Z,100223.09
2023-12-29T05:12:10.229Z,100216.13
2023-12-29T05:14:36.770Z,100220.59
2023-12-29T05:17:03.276Z,100218.25
2023-12-29T05:19:29.957Z,100222.91
2023-12-29T05:21:56.404Z,100204.53
2023-12-29T05:24:22.760Z,100206.25
2023-12-29T05:26:49.093Z,100206.97
2023-12-29T05:29:15.638Z,100215.31
2023-12-29T05:31:42.244Z,100209.03
2023-12-29T05:34:08.789Z,100231.03
2023-12-29T05:36:38.575Z,100219.84
2023-12-29T05:39:05.069Z,100219.09
2023-12-29T05:41:31.661Z,100211.38
2023-12-29T05:43:59.106Z,100211.59
2023-12-29T05:46:25.667Z,100213.59
2023-12-29T05:48:53.509Z,100202.19
2023-12-29T05:51:21.064Z,100209.34
2023-12-29T05:53:47.481Z,100216.69
2023-12-29T05:56:15.406Z,100209.66
2023-12-29T05:58:45.017Z,100209.69
2023-12-29T06:01:12.008Z,100213.28
2023-12-29T06:03:39.118Z,100207.19
2023-12-29T06:06:05.843Z,100204.66
2023-12-29T06:08:32.395Z,100200.38
2023-12-29T06:10:58.793Z,100204.91
2023-12-29T06:13:25.374Z,100198.72
2023-12-29T06:15:51.854Z,100199.59
2023-12-29T06:18:18.351Z,100204.00
2023-12-29T06:20:44.861Z,100197.94
2023-12-29T06:23:11.667Z,100207.78
2023-12-29T06:25:40.532Z,100212.22
2023-12-29T06:28:07.668Z,100221.94
2023-12-29T06:30:34.744Z,100220.56
2023-12-29T06:33:01.274Z,100223.97
2023-12-29T06:35:27.716Z,100223.97
2023-12-29T06:37:54.244Z,100226.72
2023-12-29T06:40:20.755Z,100215.31
2023-12-29T06:42:47.154Z,100231.19
2023-12-29T06:45:13.829Z,100231.28
2023-12-29T06:47:40.558Z,100222.47
2023-12-29T06:50:08.270Z,100219.84
2023-12-29T06:52:35.393Z,100226.00
2023-12-29T06:55:02.791Z,100220.00
2023-12-29T06:57:29.256Z,100216.53
2023-12-29T06:59:55.715Z,100210.44
2023-12-29T07:02:22.143Z,100218.44
2023-12-29T07:04:48.572Z,100215.84
2023-12-29T07:07:15.252Z,100215.94
2023-12-29T07:09:41.973Z,100215.19
2023-12-29T07:12:08.523Z,100213.41
2023-12-29T07:14:36.662Z,100220.53
2023-12-29T07:17:03.953Z,100219.69
2023-12-29T07:19:37.847Z,100218.06
2023-12-29T07:22:06.885Z,100219.84
2023-12-29T07:24:33.880Z,100218.97
2023-12-29T07:27:00.328Z,100211.00
2023-12-29T07:29:26.754Z,100206.63
2023-12-29T07:31:53.644Z,100216.31
2023-12-29T07:34:21.068Z,100218.94
2023-12-29T07:36:47.738Z,100219.00
2023-12-29T07:39:14.143Z,100223.38
2023-12-29T07:41:42.894Z,100227.78
2023-12-29T07:44:11.885Z,100233.94
2023-12-29T07:46:39.487Z,100239.25
2023-12-29T07:49:06.399Z,100241.03
2023-12-29T07:51:33.467Z,100239.41
2023-12-29T07:53:59.871Z,100227.06
2023-12-29T07:56:26.265Z,100235.00
2023-12-29T07:58:52.906Z,100236.88
2023-12-29T08:01:19.542Z,100243.84
2023-12-29T08:03:46.499Z,100241.22
2023-12-29T08:06:13.874Z,100240.47
2023-12-29T08:08:40.480Z,100239.56
2023-12-29T08:11:07.875Z,100245.72
2023-12-29T08:13:35.172Z,100234.31
2023-12-29T08:16:01.549Z,100234.38
2023-12-29T08:18:29.065Z,100239.72
2023-12-29T08:20:55.498Z,100238.00
2023-12-29T08:23:21.887Z,100237.13
2023-12-29T08:25:48.272Z,100241.56
2023-12-29T08:28:14.976Z,100249.56
2023-12-29T08:30:41.747Z,100253.94
2023-12-29T08:33:08.216Z,100250.47
2023-12-29T08:35:34.614Z,100254.91
2023-12-29T08:38:01.311Z,100251.38
2023-12-29T08:40:27.918Z,100239.94
2023-12-29T08:42:54.354Z,100244.41
2023-12-29T08:45:20.733Z,100235.63
2023-12-29T08:47:47.172Z,100238.31
2023-12-29T08:50:13.625Z,100240.16
2023-12-29T08:52:44.328Z,100245.53
2023-12-29T08:55:11.152Z,100241.13
2023-12-29T08:57:37.712Z,100236.72
2023-12-29T09:00:04.593Z,100241.16
2023-12-29T09:02:30.994Z,100237.75
2023-12-29T09:04:57.394Z,100236.03
2023-12-29T09:07:23.783Z,100242.31
2023-12-29T09:09:50.439Z,100235.19
2023-12-29T09:12:17.014Z,100229.09
2023-12-29T09:14:43.438Z,100228.19
2023-12-29T09:17:10.087Z,100229.97
2023-12-29T09:19:40.191Z,100230.84
2023-12-29T09:22:07.349Z,100229.06
2023-12-29T09:24:33.745Z,100233.50
2023-12-29T09:27:00.188Z,100237.03
2023-12-29T09:29:26.633Z,100237.88
2023-12-29T09:31:53.080Z,100242.28
2023-12-29T09:34:19.601Z,100245.81
2023-12-29T09:36:48.204Z,100245.78
2023-12-29T09:39:14.607Z,100232.56
2023-12-29T09:41:46.712Z,100244.09
2023-12-29T09:44:16.402Z,100248.44
2023-12-29T09:46:44.313Z,100253.72
2023-12-29T09:49:12.321Z,100257.19
2023-12-29T09:51:39.105Z,100255.47
2023-12-29T09:54:05.916Z,100259.91
2023-12-29T09:56:32.605Z,100259.06
2023-12-29T09:58:59.289Z,100256.44
2023-12-29T10:01:30.459Z,100265.28
2023-12-29T10:03:56.975Z,100273.25
2023-12-29T10:06:27.283Z,100257.34
2023-12-29T10:08:54.599Z,100261.78
2023-12-29T10:11:25.707Z,100260.06
2023-12-29T10:13:55.928Z,100266.25
2023-12-29T10:16:42.640Z,100263.59
2023-12-29T10:19:40.933Z,100260.09
2023-12-29T10:22:25.733Z,100261.06
2023-12-29T10:24:52.577Z,100270.78
2023-12-29T10:27:19.089Z,100266.44
2023-12-29T10:29:45.501Z,100264.69
2023-12-29T10:32:12.078Z,100267.38
2023-12-29T10:34:38.712Z,100262.09
2023-12-29T10:37:10.036Z,100260.31
2023-12-29T10:39:37.295Z,100270.06
2023-12-29T10:42:09.096Z,100262.16
2023-12-29T10:44:36.902Z,100252.50
2023-12-29T10:47:13.739Z,100262.28
2023-12-29T10:49:42.120Z,100259.63
2023-12-29T10:52:15.997Z,100258.72
2023-12-29T10:54:43.790Z,100261.34
2023-12-29T10:57:13.649Z,100263.13
2023-12-29T10:59:40.668Z,100261.31
2023-12-29T11:02:09.534Z,100259.53
2023-12-29T11:04:36.439Z,100254.22
2023-12-29T11:07:03.048Z,100257.75
2023-12-29T11:09:30.907Z,100262.16
2023-12-29T11:12:04.824Z,100252.44
2023-12-29T11:14:31.728Z,100253.34
2023-12-29T11:17:02.680Z,100252.44
2023-12-29T11:19:29.284Z,100247.94
2023-12-29T11:21:57.192Z,100262.94
2023-12-29T11:24:30.991Z,100254.13
2023-12-29T11:27:07.768Z,100246.19
2023-12-29T11:29:35.329Z,100258.53
2023-12-29T11:32:06.944Z,100258.59
2023-12-29T11:34:45.929Z,100262.13
2023-12-29T11:37:48.485Z,100257.69
2023-12-29T11:40:25.937Z,100257.66
2023-12-29T11:42:56.105Z,100264.72
2023-12-29T11:45:29.839Z,100259.44
2023-12-29T11:47:57.896Z,100259.47
2023-12-29T11:50:32.978Z,100256.00
2023-12-29T11:53:00.863Z,100242.81
2023-12-29T11:55:33.967Z,100250.00
2023-12-29T11:58:01.462Z,100253.59
2023-12-29T12:00:47.526Z,100249.19
2023-12-29T12:03:20.390Z,100243.00
2023-12-29T12:05:51.334Z,100228.03
2023-12-29T12:08:29.247Z,100218.38
2023-12-29T12:10:57.225Z,100204.25
2023-12-29T12:13:46.235Z,100201.66
2023-12-29T12:16:51.623Z,100210.56
2023-12-29T12:19:19.497Z,100193.84
2023-12-29T12:21:50.861Z,100198.34
2023-12-29T12:24:20.271Z,100193.13
2023-12-29T12:26:46.708Z,100191.34
2023-12-29T12:29:15.009Z,100186.97
2023-12-29T12:31:59.645Z,100195.88
2023-12-29T12:34:27.271Z,100185.28
2023-12-29T12:36:57.931Z,100194.13
2023-12-29T12:39:24.777Z,100184.34
2023-12-29T12:41:51.404Z,100185.22
2023-12-29T12:44:18.013Z,100174.53
2023-12-29T12:47:00.272Z,100169.19
2023-12-29T12:49:26.880Z,100186.00
2023-12-29T12:51:54.819Z,100186.03
2023-12-29T12:54:21.454Z,100183.38
2023-12-29T12:56:49.099Z,100182.53
2023-12-29T12:59:17.459Z,100171.94
2023-12-29T13:01:44.445Z,100173.78
2023-12-29T13:04:12.639Z,100172.81
2023-12-29T13:06:44.944Z,100180.75
2023-12-29T13:09:13.524Z,100163.94
2023-12-29T13:11:41.875Z,100168.34
2023-12-29T13:14:08.671Z,100173.66
2023-12-29T13:16:37.662Z,100163.97
2023-12-29T13:19:26.505Z,100172.78
2023-12-29T13:21:56.523Z,100167.47
2023-12-29T13:24:26.928Z,100156.00
2023-12-29T13:26:58.512Z,100160.41
2023-12-29T13:29:27.094Z,100150.72
2023-12-29T13:31:55.480Z,100140.13
2023-12-29T13:34:36.540Z,100145.53
2023-12-29T13:37:11.042Z,100141.19
2023-12-29T13:39:42.879Z,100142.94
2023-12-29T13:42:11.677Z,100160.63
2023-12-29T13:44:41.909Z,100161.44
2023-12-29T13:47:09.176Z,100165.81
2023-12-29T13:49:37.774Z,100160.44
2023-12-29T13:52:04.963Z,100161.28
2023-12-29T13:54:31.550Z,100156.84
2023-12-29T13:56:58.017Z,100149.75
2023-12-29T13:59:33.059Z,100145.28
2023-12-29T14:02:03.915Z,100118.69
2023-12-29T14:04:30.501Z,100147.03
2023-12-29T14:07:03.454Z,100138.19
2023-12-29T14:09:30.105Z,100149.63
2023-12-29T14:11:57.252Z,100152.25
2023-12-29T14:14:25.741Z,100144.28
2023-12-29T14:16:54.053Z,100141.56
2023-12-29T14:19:20.906Z,100153.94
2023-12-29T14:21:52.225Z,100149.50
2023-12-29T14:24:19.486Z,100130.03
2023-12-29T14:26:55.000Z,100158.31
2023-12-29T14:29:22.021Z,100144.97
2023-12-29T14:31:48.926Z,100150.25
2023-12-29T14:34:15.905Z,100155.47
2023-12-29T14:36:43.377Z,100146.63
2023-12-29T14:39:13.990Z,100152.81
2023-12-29T14:41:40.888Z,100159.84
2023-12-29T14:44:07.393Z,100149.22
2023-12-29T14:46:37.716Z,100158.91
2023-12-29T14:49:04.571Z,100148.28
2023-12-29T14:51:31.133Z,100150.84
2023-12-29T14:53:57.583Z,100165.91
2023-12-29T14:56:23.990Z,100155.25
2023-12-29T14:58:50.444Z,100157.06
2023-12-29T15:01:18.478Z,100143.75
2023-12-29T15:03:45.071Z,100141.13
2023-12-29T15:06:11.969Z,100149.09
2023-12-29T15:08:38.712Z,100149.09
2023-12-29T15:11:07.064Z,100139.31
2023-12-29T15:13:34.007Z,100138.41
2023-12-29T15:16:01.633Z,100137.56
2023-12-29T15:18:31.009Z,100140.19
2023-12-29T15:20:58.304Z,100150.78
2023-12-29T15:23:24.875Z,100129.50
2023-12-29T15:25:52.014Z,100143.69
2023-12-29T15:28:18.721Z,100162.25
2023-12-29T15:30:47.280Z,100149.81
2023-12-29T15:33:14.482Z,100148.03
2023-12-29T15:35:42.187Z,100147.16
2023-12-29T15:38:09.467Z,100149.78
2023-12-29T15:40:36.339Z,100154.19
2023-12-29T15:43:04.267Z,100150.59
2023-12-29T15:45:31.935Z,100150.56
2023-12-29T15:47:58.900Z,100159.41
2023-12-29T15:50:25.964Z,100159.38
2023-12-29T15:52:53.397Z,100157.59
2023-12-29T15:55:20.154Z,100146.91
2023-12-29T15:57:46.794Z,100147.78
2023-12-29T16:00:14.718Z,100153.00
2023-12-29T16:02:41.313Z,100153.88
2023-12-29T16:05:07.807Z,100154.69
2023-12-29T16:07:34.384Z,100158.09
2023-12-29T16:10:01.309Z,100158.91
2023-12-29T16:12:27.782Z,100153.63
2023-12-29T16:14:54.282Z,100151.81
2023-12-29T16:17:20.708Z,100151.81
2023-12-29T16:19:47.952Z,100150.00
2023-12-29T16:22:15.162Z,100142.09
2023-12-29T16:24:41.883Z,100152.72
2023-12-29T16:27:08.369Z,100142.97
2023-12-29T16:29:34.813Z,100147.44
2023-12-29T16:32:01.417Z,100152.69
2023-12-29T16:34:27.957Z,100150.03
2023-12-29T16:37:00.906Z,100139.41
2023-12-29T16:39:28.337Z,100146.53
2023-12-29T16:41:55.094Z,100150.03
2023-12-29T16:44:21.535Z,100130.63
2023-12-29T16:46:48.014Z,100137.63
2023-12-29T16:49:14.653Z,100143.81
2023-12-29T16:51:43.116Z,100119.88
2023-12-29T16:54:10.427Z,100131.44
2023-12-29T16:56:37.223Z,100137.59
2023-12-29T16:59:03.911Z,100136.72
2023-12-29T17:01:30.712Z,100128.81
2023-12-29T17:03:57.904Z,100128.72
2023-12-29T17:06:24.995Z,100129.66
2023-12-29T17:08:51.548Z,100125.25
2023-12-29T17:11:17.973Z,100127.94
2023-12-29T17:13:44.410Z,100123.59
2023-12-29T17:16:12.855Z,100127.16
2023-12-29T17:18:42.011Z,100114.84
2023-12-29T17:21:09.405Z,100111.31
2023-12-29T17:23:35.876Z,100112.25
2023-12-29T17:26:03.635Z,100110.50
2023-12-29T17:28:30.137Z,100115.88
2023-12-29T17:30:56.598Z,100099.91
2023-12-29T17:33:23.136Z,100105.34
2023-12-29T17:35:49.674Z,100113.25
2023-12-29T17:38:16.028Z,100107.97
2023-12-29T17:40:42.450Z,100093.78
2023-12-29T17:43:08.884Z,100096.50
2023-12-29T17:45:35.440Z,100105.34
2023-12-29T17:48:01.930Z,100096.53
2023-12-29T17:50:29.274Z,100091.25
2023-12-29T17:52:55.742Z,100115.97
2023-12-29T17:55:22.222Z,100123.03
2023-12-29T17:57:48.935Z,100115.97
2023-12-29T18:00:15.850Z,100112.38
2023-12-29T18:02:42.264Z,100117.72
2023-12-29T18:05:08.807Z,100108.91
2023-12-29T18:07:35.395Z,100111.56
2023-12-29T18:10:03.397Z,100107.16
2023-12-29T18:12:29.794Z,100109.78
2023-12-29T18:14:56.132Z,100102.75
2023-12-29T18:17:23.827Z,100109.78
2023-12-29T18:19:50.954Z,100093.03
2023-12-29T18:22:18.525Z,100098.34
2023-12-29T18:24:45.302Z,100104.50
2023-12-29T18:27:12.433Z,100120.38
2023-12-29T18:29:38.787Z,100128.31
2023-12-29T18:32:18.998Z,100131.88
2023-12-29T18:34:48.557Z,100140.66
2023-12-29T18:37:15.009Z,100127.47
2023-12-29T18:39:42.886Z,100137.16
2023-12-29T18:42:09.308Z,100138.03
2023-12-29T18:44:39.001Z,100139.75
2023-12-29T18:47:05.622Z,100132.69
2023-12-29T18:49:32.292Z,100130.03
2023-12-29T18:51:59.297Z,100143.28
2023-12-29T18:54:29.373Z,100129.19
2023-12-29T18:56:55.753Z,100137.94
2023-12-29T18:59:22.220Z,100156.34
2023-12-29T19:01:48.878Z,100138.66
2023-12-29T19:04:15.546Z,100148.34
2023-12-29T19:06:43.747Z,100161.56
2023-12-29T19:09:12.418Z,100148.28
2023-12-29T19:11:39.119Z,100148.22
2023-12-29T19:14:05.599Z,100148.97
2023-12-29T19:16:32.021Z,100156.91
2023-12-29T19:18:58.511Z,100170.97
2023-12-29T19:21:25.496Z,100167.41
2023-12-29T19:23:51.991Z,100160.34
2023-12-29T19:26:23.043Z,100156.81
2023-12-29T19:28:50.426Z,100165.69
2023-12-29T19:31:20.674Z,100160.38
2023-12-29T19:33:48.064Z,100171.88
2023-12-29T19:36:17.549Z,100165.63
2023-12-29T19:38:46.391Z,100170.97
2023-12-29T19:41:14.239Z,100169.06
2023-12-29T19:43:42.249Z,100161.13
2023-12-29T19:46:09.608Z,100155.75
2023-12-29T19:48:36.820Z,100156.56
2023-12-29T19:51:03.737Z,100153.00
2023-12-29T19:53:30.379Z,100145.00
2023-12-29T19:55:58.705Z,100156.38
2023-12-29T19:58:26.822Z,100159.03
2023-12-29T20:00:54.157Z,100158.09
2023-12-29T20:03:23.791Z,100155.47
2023-12-29T20:05:52.075Z,100153.69
2023-12-29T20:08:19.263Z,100149.25
2023-12-29T20:10:45.705Z,100144.88
2023-12-29T20:13:12.170Z,100151.88
2023-12-29T20:15:38.703Z,100149.25
2023-12-29T20:18:05.410Z,100140.38
2023-12-29T20:20:32.002Z,100155.41
2023-12-29T20:22:58.640Z,100146.56
2023-12-29T20:25:25.140Z,100147.41
2023-12-29T20:27:51.688Z,100143.84
2023-12-29T20:30:18.481Z,100128.75
2023-12-29T20:32:44.862Z,100136.66
2023-12-29T20:35:11.293Z,100141.91
2023-12-29T20:37:37.797Z,100138.34
2023-12-29T20:40:05.569Z,100140.00
2023-12-29T20:42:32.057Z,100132.09
2023-12-29T20:45:00.094Z,100146.94
2023-12-29T20:47:26.635Z,100144.22
2023-12-29T20:49:54.504Z,100145.03
2023-12-29T20:52:21.297Z,100144.97
2023-12-29T20:54:47.826Z,100151.03
2023-12-29T20:57:14.247Z,100141.34
2023-12-29T20:59:40.670Z,100153.66
2023-12-29T21:02:07.440Z,100160.69
2023-12-29T21:04:33.950Z,100162.44
2023-12-29T21:07:00.504Z,100169.44
2023-12-29T21:09:27.111Z,100162.44
2023-12-29T21:11:54.463Z,100161.50
2023-12-29T21:14:22.221Z,100150.00
2023-12-29T21:16:48.728Z,100169.47
2023-12-29T21:19:15.199Z,100167.72
2023-12-29T21:21:42.028Z,100165.88
2023-12-29T21:24:11.353Z,100155.31
2023-12-29T21:26:37.829Z,100160.56
2023-12-29T21:29:05.244Z,100159.66
2023-12-29T21:31:35.122Z,100148.13
2023-12-29T21:34:02.422Z,100154.31
2023-12-29T21:36:32.020Z,100168.34
2023-12-29T21:38:59.047Z,100159.63
2023-12-29T21:41:27.932Z,100167.59
2023-12-29T21:43:54.626Z,100170.16
2023-12-29T21:46:22.322Z,100179.00
2023-12-29T21:48:49.433Z,100186.03
2023-12-29T21:51:15.906Z,100192.19
2023-12-29T21:53:42.451Z,100183.44
2023-12-29T21:56:09.047Z,100190.50
2023-12-29T21:58:36.447Z,100181.69
2023-12-29T22:01:28.311Z,100179.09
2023-12-29T22:03:54.999Z,100172.06
2023-12-29T22:06:21.450Z,100161.50
2023-12-29T22:08:47.785Z,100164.97
2023-12-29T22:11:14.176Z,100168.44
2023-12-29T22:13:40.679Z,100177.19
2023-12-29T22:16:07.649Z,100181.56
2023-12-29T22:18:34.311Z,100188.50
2023-12-29T22:21:00.715Z,100177.03
2023-12-29T22:23:27.124Z,100192.94
2023-12-29T22:25:53.663Z,100187.66
2023-12-29T22:28:20.907Z,100194.75
2023-12-29T22:30:47.436Z,100190.34
2023-12-29T22:33:14.678Z,100187.66
2023-12-29T22:35:41.375Z,100184.94
2023-12-29T22:38:08.062Z,100183.88
2023-12-29T22:40:34.891Z,100182.00
2023-12-29T22:43:01.450Z,100179.16
2023-12-29T22:45:28.418Z,100174.69
2023-12-29T22:47:54.762Z,100177.75
2023-12-29T22:50:21.170Z,100183.63
2023-12-29T22:52:47.630Z,100181.72
2023-12-29T22:55:14.254Z,100186.75
2023-12-29T22:57:40.684Z,100198.22
2023-12-29T23:00:11.849Z,100191.81
2023-12-29T23:02:38.633Z,100189.84
2023-12-29T23:05:05.360Z,100186.28
2023-12-29T23:07:32.025Z,100184.41
2023-12-29T23:09:58.494Z,100197.56
2023-12-29T23:12:24.953Z,100209.06
2023-12-29T23:14:51.446Z,100201.84
2023-12-29T23:17:18.246Z,100212.44
2023-12-29T23:19:45.164Z,100203.50
2023-12-29T23:22:11.640Z,100203.75
2023-12-29T23:24:38.128Z,100195.66
2023-12-29T23:27:04.942Z,100205.88
2023-12-29T23:29:31.319Z,100207.22
2023-12-29T23:31:57.704Z,100212.69
2023-12-29T23:34:24.287Z,100211.81
2023-12-29T23:36:50.835Z,100202.09
2023-12-29T23:39:17.236Z,100215.00
2023-12-29T23:41:43.647Z,100218.78
2023-12-29T23:44:10.102Z,100226.31
2023-12-29T23:46:37.037Z,100225.97
2023-12-29T23:49:03.481Z,100226.97
2023-12-29T23:51:29.910Z,100223.44
2023-12-29T23:53:56.312Z,100227.88
2023-12-29T23:56:22.720Z,100217.09
2023-12-29T23:58:51.325Z,100216.03
